sensor_id;sensor_type;location;lat;lon;timestamp;pressure;altitude;pressure_sealevel;temperature;humidity
46722;BME280;32455;43.430;23.136;2024-01-06T00:00:48;97822.63;;;6.48;100.00
46722;BME280;32455;43.430;23.136;2024-01-06T00:03:35;97815.00;;;6.72;100.00
46722;BME280;32455;43.430;23.136;2024-01-06T00:06:20;97817.91;;;6.90;100.00
46722;BME280;32455;43.430;23.136;2024-01-06T00:09:05;97817.47;;;6.87;100.00
46722;BME280;32455;43.430;23.136;2024-01-06T00:11:51;97836.16;;;6.93;100.00
46722;BME280;32455;43.430;23.136;2024-01-06T00:14:36;97830.63;;;6.95;100.00
46722;BME280;32455;43.430;23.136;2024-01-06T00:17:22;97830.41;;;7.03;100.00
46722;BME280;32455;43.430;23.136;2024-01-06T00:20:07;97834.13;;;6.95;100.00
46722;BME280;32455;43.430;23.136;2024-01-06T00:22:52;97834.97;;;6.69;100.00
46722;BME280;32455;43.430;23.136;2024-01-06T00:25:37;97842.56;;;6.52;100.00
46722;BME280;32455;43.430;23.136;2024-01-06T00:28:22;97836.38;;;6.78;100.00
46722;BME280;32455;43.430;23.136;2024-01-06T00:31:08;97841.94;;;6.64;100.00
46722;BME280;32455;43.430;23.136;2024-01-06T00:33:54;97836.41;;;6.39;100.00
46722;BME280;32455;43.430;23.136;2024-01-06T00:36:39;97824.28;;;6.30;100.00
46722;BME280;32455;43.430;23.136;2024-01-06T00:39:24;97812.97;;;6.54;100.00
46722;BME280;32455;43.430;23.136;2024-01-06T00:42:10;97820.19;;;6.60;100.00
46722;BME280;32455;43.430;23.136;2024-01-06T00:44:55;97818.31;;;6.61;100.00
46722;BME280;32455;43.430;23.136;2024-01-06T00:47:40;97830.16;;;5.92;100.00
46722;BME280;32455;43.430;23.136;2024-01-06T00:50:26;97831.50;;;5.81;100.00
46722;BME280;32455;43.430;23.136;2024-01-06T00:53:11;97822.97;;;5.92;100.00
46722;BME280;32455;43.430;23.136;2024-01-06T00:55:57;97820.13;;;6.00;100.00
46722;BME280;32455;43.430;23.136;2024-01-06T00:58:42;97829.59;;;6.23;100.00
46722;BME280;32455;43.430;23.136;2024-01-06T01:01:27;97835.56;;;6.32;100.00
46722;BME280;32455;43.430;23.136;2024-01-06T01:04:12;97841.03;;;6.03;100.00
46722;BME280;32455;43.430;23.136;2024-01-06T01:06:57;97831.59;;;6.01;100.00
46722;BME280;32455;43.430;23.136;2024-01-06T01:09:42;97829.56;;;5.96;100.00
46722;BME280;32455;43.430;23.136;2024-01-06T01:12:28;97827.50;;;5.98;100.00
46722;BME280;32455;43.430;23.136;2024-01-06T01:15:13;97812.66;;;5.89;100.00
46722;BME280;32455;43.430;23.136;2024-01-06T01:17:58;97814.31;;;5.84;100.00
46722;BME280;32455;43.430;23.136;2024-01-06T01:20:44;97816.59;;;5.87;100.00
46722;BME280;32455;43.430;23.136;2024-01-06T01:23:29;97805.69;;;5.88;100.00
46722;BME280;32455;43.430;23.136;2024-01-06T01:26:15;97800.41;;;5.95;100.00
46722;BME280;32455;43.430;23.136;2024-01-06T01:29:00;97793.91;;;5.49;100.00
46722;BME280;32455;43.430;23.136;2024-01-06T01:31:45;97791.19;;;5.36;100.00
46722;BME280;32455;43.430;23.136;2024-01-06T01:34:30;97787.06;;;5.27;100.00
46722;BME280;32455;43.430;23.136;2024-01-06T01:37:15;97799.66;;;5.60;100.00
46722;BME280;32455;43.430;23.136;2024-01-06T01:40:01;97796.84;;;5.74;100.00
46722;BME280;32455;43.430;23.136;2024-01-06T01:42:46;97792.28;;;5.55;100.00
46722;BME280;32455;43.430;23.136;2024-01-06T01:45:31;97787.69;;;5.36;100.00
46722;BME280;32455;43.430;23.136;2024-01-06T01:48:18;97782.63;;;5.54;100.00
46722;BME280;32455;43.430;23.136;2024-01-06T01:51:04;97780.91;;;5.33;100.00
46722;BME280;32455;43.430;23.136;2024-01-06T01:53:50;97780.34;;;5.44;100.00
46722;BME280;32455;43.430;23.136;2024-01-06T01:56:36;97789.00;;;5.60;100.00
46722;BME280;32455;43.430;23.136;2024-01-06T01:59:22;97785.94;;;5.63;100.00
46722;BME280;32455;43.430;23.136;2024-01-06T02:02:08;97782.25;;;5.64;100.00
46722;BME280;32455;43.430;23.136;2024-01-06T02:04:56;97767.38;;;5.35;100.00
46722;BME280;32455;43.430;23.136;2024-01-06T02:07:41;97759.34;;;5.15;100.00
46722;BME280;32455;43.430;23.136;2024-01-06T02:10:26;97752.66;;;5.32;100.00
46722;BME280;32455;43.430;23.136;2024-01-06T02:13:12;97742.75;;;5.26;100.00
46722;BME280;32455;43.430;23.136;2024-01-06T02:15:57;97734.16;;;5.24;100.00
46722;BME280;32455;43.430;23.136;2024-01-06T02:18:42;97733.22;;;5.51;100.00
46722;BME280;32455;43.430;23.136;2024-01-06T02:21:28;97742.28;;;5.57;100.00
46722;BME280;32455;43.430;23.136;2024-01-06T02:24:13;97745.75;;;5.64;100.00
46722;BME280;32455;43.430;23.136;2024-01-06T02:26:59;97752.22;;;5.28;100.00
46722;BME280;32455;43.430;23.136;2024-01-06T02:29:44;97746.75;;;5.50;100.00
46722;BME280;32455;43.430;23.136;2024-01-06T02:32:30;97753.88;;;5.43;100.00
46722;BME280;32455;43.430;23.136;2024-01-06T02:35:16;97739.38;;;5.45;100.00
46722;BME280;32455;43.430;23.136;2024-01-06T02:38:01;97730.31;;;5.33;100.00
46722;BME280;32455;43.430;23.136;2024-01-06T02:40:47;97720.97;;;5.09;100.00
46722;BME280;32455;43.430;23.136;2024-01-06T02:43:32;97719.03;;;5.31;100.00
46722;BME280;32455;43.430;23.136;2024-01-06T02:46:17;97711.19;;;5.16;100.00
46722;BME280;32455;43.430;23.136;2024-01-06T02:49:02;97708.78;;;5.35;100.00
46722;BME280;32455;43.430;23.136;2024-01-06T02:51:48;97703.28;;;5.36;100.00
46722;BME280;32455;43.430;23.136;2024-01-06T02:54:33;97707.19;;;4.92;100.00
46722;BME280;32455;43.430;23.136;2024-01-06T02:57:18;97714.34;;;4.92;100.00
46722;BME280;32455;43.430;23.136;2024-01-06T03:00:04;97716.34;;;4.83;100.00
46722;BME280;32455;43.430;23.136;2024-01-06T03:02:49;97714.78;;;4.95;100.00
46722;BME280;32455;43.430;23.136;2024-01-06T03:05:35;97722.59;;;4.97;100.00
46722;BME280;32455;43.430;23.136;2024-01-06T03:08:21;97709.19;;;4.77;100.00
46722;BME280;32455;43.430;23.136;2024-01-06T03:11:07;97698.53;;;4.84;100.00
46722;BME280;32455;43.430;23.136;2024-01-06T03:13:52;97715.91;;;4.73;100.00
46722;BME280;32455;43.430;23.136;2024-01-06T03:16:37;97704.63;;;5.12;100.00
46722;BME280;32455;43.430;23.136;2024-01-06T03:19:22;97691.16;;;5.34;100.00
46722;BME280;32455;43.430;23.136;2024-01-06T03:22:10;97692.19;;;5.33;100.00
46722;BME280;32455;43.430;23.136;2024-01-06T03:24:55;97686.34;;;5.02;100.00
46722;BME280;32455;43.430;23.136;2024-01-06T03:27:41;97687.84;;;5.18;100.00
46722;BME280;32455;43.430;23.136;2024-01-06T03:30:26;97695.53;;;4.93;100.00
46722;BME280;32455;43.430;23.136;2024-01-06T03:33:11;97679.69;;;5.33;100.00
46722;BME280;32455;43.430;23.136;2024-01-06T03:35:57;97658.59;;;5.45;100.00
46722;BME280;32455;43.430;23.136;2024-01-06T03:38:42;97662.78;;;4.93;100.00
46722;BME280;32455;43.430;23.136;2024-01-06T03:41:27;97646.03;;;5.06;100.00
46722;BME280;32455;43.430;23.136;2024-01-06T03:44:12;97654.88;;;5.39;100.00
46722;BME280;32455;43.430;23.136;2024-01-06T03:46:58;97648.53;;;5.34;100.00
46722;BME280;32455;43.430;23.136;2024-01-06T03:49:44;97657.53;;;5.19;100.00
46722;BME280;32455;43.430;23.136;2024-01-06T03:52:29;97661.50;;;4.82;100.00
46722;BME280;32455;43.430;23.136;2024-01-06T03:55:16;97656.88;;;5.17;100.00
46722;BME280;32455;43.430;23.136;2024-01-06T03:58:01;97660.78;;;5.21;100.00
46722;BME280;32455;43.430;23.136;2024-01-06T04:00:47;97682.78;;;5.37;100.00
46722;BME280;32455;43.430;23.136;2024-01-06T04:03:32;97677.56;;;5.09;100.00
46722;BME280;32455;43.430;23.136;2024-01-06T04:06:18;97678.06;;;5.32;100.00
46722;BME280;32455;43.430;23.136;2024-01-06T04:09:03;97682.56;;;5.32;100.00
46722;BME280;32455;43.430;23.136;2024-01-06T04:11:50;97677.88;;;5.47;100.00
46722;BME280;32455;43.430;23.136;2024-01-06T04:14:35;97681.78;;;5.58;100.00
46722;BME280;32455;43.430;23.136;2024-01-06T04:17:20;97683.63;;;5.44;100.00
46722;BME280;32455;43.430;23.136;2024-01-06T04:20:07;97688.94;;;5.50;100.00
46722;BME280;32455;43.430;23.136;2024-01-06T04:22:52;97684.03;;;5.54;100.00
46722;BME280;32455;43.430;23.136;2024-01-06T04:25:37;97676.75;;;5.08;100.00
46722;BME280;32455;43.430;23.136;2024-01-06T04:28:22;97672.91;;;5.31;100.00
46722;BME280;32455;43.430;23.136;2024-01-06T04:31:08;97681.16;;;4.88;100.00
46722;BME280;32455;43.430;23.136;2024-01-06T04:33:53;97671.69;;;5.33;100.00
46722;BME280;32455;43.430;23.136;2024-01-06T04:36:38;97689.44;;;5.06;100.00
46722;BME280;32455;43.430;23.136;2024-01-06T04:39:24;97663.88;;;5.25;100.00
46722;BME280;32455;43.430;23.136;2024-01-06T04:42:09;97676.72;;;5.01;100.00
46722;BME280;32455;43.430;23.136;2024-01-06T04:44:55;97666.34;;;5.20;100.00
46722;BME280;32455;43.430;23.136;2024-01-06T04:47:40;97670.72;;;4.86;100.00
46722;BME280;32455;43.430;23.136;2024-01-06T04:50:25;97662.19;;;4.97;100.00
46722;BME280;32455;43.430;23.136;2024-01-06T04:53:11;97654.66;;;5.14;100.00
46722;BME280;32455;43.430;23.136;2024-01-06T04:55:57;97662.00;;;5.12;100.00
46722;BME280;32455;43.430;23.136;2024-01-06T04:58:42;97656.88;;;5.17;100.00
46722;BME280;32455;43.430;23.136;2024-01-06T05:01:26;97663.16;;;4.96;100.00
46722;BME280;32455;43.430;23.136;2024-01-06T05:04:11;97655.72;;;4.78;100.00
46722;BME280;32455;43.430;23.136;2024-01-06T05:06:56;97665.66;;;4.98;100.00
46722;BME280;32455;43.430;23.136;2024-01-06T05:09:42;97657.53;;;5.19;100.00
46722;BME280;32455;43.430;23.136;2024-01-06T05:12:27;97663.28;;;5.30;100.00
46722;BME280;32455;43.430;23.136;2024-01-06T05:15:13;97653.44;;;5.30;100.00
46722;BME280;32455;43.430;23.136;2024-01-06T05:17:58;97649.53;;;5.19;100.00
46722;BME280;32455;43.430;23.136;2024-01-06T05:20:43;97645.47;;;5.37;100.00
46722;BME280;32455;43.430;23.136;2024-01-06T05:23:29;97640.53;;;5.34;100.00
46722;BME280;32455;43.430;23.136;2024-01-06T05:26:14;97658.91;;;5.09;100.00
46722;BME280;32455;43.430;23.136;2024-01-06T05:29:00;97655.94;;;4.77;100.00
46722;BME280;32455;43.430;23.136;2024-01-06T05:31:45;97661.69;;;4.81;100.00
46722;BME280;32455;43.430;23.136;2024-01-06T05:34:33;97646.00;;;4.99;100.00
46722;BME280;32455;43.430;23.136;2024-01-06T05:37:18;97644.53;;;4.90;100.00
46722;BME280;32455;43.430;23.136;2024-01-06T05:40:04;97635.00;;;4.61;100.00
46722;BME280;32455;43.430;23.136;2024-01-06T05:42:53;97641.00;;;4.76;100.00
46722;BME280;32455;43.430;23.136;2024-01-06T05:45:40;97658.31;;;5.13;100.00
46722;BME280;32455;43.430;23.136;2024-01-06T05:48:28;97658.56;;;5.25;100.00
46722;BME280;32455;43.430;23.136;2024-01-06T05:51:13;97651.59;;;5.24;100.00
46722;BME280;32455;43.430;23.136;2024-01-06T05:53:59;97656.16;;;4.75;100.00
46722;BME280;32455;43.430;23.136;2024-01-06T05:56:44;97638.94;;;4.78;100.00
46722;BME280;32455;43.430;23.136;2024-01-06T05:59:32;97649.84;;;4.96;100.00
46722;BME280;32455;43.430;23.136;2024-01-06T06:02:18;97652.38;;;5.11;100.00
46722;BME280;32455;43.430;23.136;2024-01-06T06:05:04;97644.66;;;5.36;100.00
46722;BME280;32455;43.430;23.136;2024-01-06T06:07:49;97640.59;;;5.53;100.00
46722;BME280;32455;43.430;23.136;2024-01-06T06:10:35;97647.31;;;5.43;100.00
46722;BME280;32455;43.430;23.136;2024-01-06T06:13:38;97640.78;;;5.45;100.00
46722;BME280;32455;43.430;23.136;2024-01-06T06:16:23;97650.41;;;5.46;100.00
46722;BME280;32455;43.430;23.136;2024-01-06T06:19:08;97652.44;;;5.38;100.00
46722;BME280;32455;43.430;23.136;2024-01-06T06:21:54;97638.91;;;5.39;100.00
46722;BME280;32455;43.430;23.136;2024-01-06T06:24:39;97644.84;;;5.28;100.00
46722;BME280;32455;43.430;23.136;2024-01-06T06:27:25;97632.75;;;5.39;100.00
46722;BME280;32455;43.430;23.136;2024-01-06T06:30:11;97640.59;;;5.53;100.00
46722;BME280;32455;43.430;23.136;2024-01-06T06:32:57;97641.38;;;5.61;100.00
46722;BME280;32455;43.430;23.136;2024-01-06T06:35:42;97640.59;;;5.80;100.00
46722;BME280;32455;43.430;23.136;2024-01-06T06:38:27;97636.28;;;5.66;100.00
46722;BME280;32455;43.430;23.136;2024-01-06T06:41:12;97633.00;;;5.70;100.00
46722;BME280;32455;43.430;23.136;2024-01-06T06:43:57;97637.09;;;5.80;100.00
46722;BME280;32455;43.430;23.136;2024-01-06T06:46:43;97643.06;;;5.75;100.00
46722;BME280;32455;43.430;23.136;2024-01-06T06:49:28;97640.59;;;5.80;100.00
46722;BME280;32455;43.430;23.136;2024-01-06T06:52:13;97636.09;;;5.74;100.00
46722;BME280;32455;43.430;23.136;2024-01-06T06:54:57;97625.44;;;5.74;100.00
46722;BME280;32455;43.430;23.136;2024-01-06T06:57:43;97612.09;;;5.81;100.00
46722;BME280;32455;43.430;23.136;2024-01-06T07:00:28;97616.56;;;5.47;100.00
46722;BME280;32455;43.430;23.136;2024-01-06T07:03:13;97619.03;;;5.28;100.00
46722;BME280;32455;43.430;23.136;2024-01-06T07:05:59;97621.72;;;5.55;100.00
46722;BME280;32455;43.430;23.136;2024-01-06T07:08:44;97627.66;;;5.50;100.00
46722;BME280;32455;43.430;23.136;2024-01-06T07:11:30;97630.34;;;5.70;100.00
46722;BME280;32455;43.430;23.136;2024-01-06T07:14:15;97628.47;;;5.77;100.00
46722;BME280;32455;43.430;23.136;2024-01-06T07:17:00;97631.75;;;5.46;100.00
46722;BME280;32455;43.430;23.136;2024-01-06T07:19:46;97623.75;;;5.60;100.00
46722;BME280;32455;43.430;23.136;2024-01-06T07:22:31;97620.69;;;5.56;100.00
46722;BME280;32455;43.430;23.136;2024-01-06T07:25:17;97623.59;;;5.61;100.00
46722;BME280;32455;43.430;23.136;2024-01-06T07:28:03;97615.41;;;5.96;100.00
46722;BME280;32455;43.430;23.136;2024-01-06T07:30:48;97619.06;;;6.08;100.00
46722;BME280;32455;43.430;23.136;2024-01-06T07:33:34;97636.50;;;5.71;100.00
46722;BME280;32455;43.430;23.136;2024-01-06T07:36:19;97638.34;;;5.84;100.00
46722;BME280;32455;43.430;23.136;2024-01-06T07:39:04;97627.66;;;6.23;100.00
46722;BME280;32455;43.430;23.136;2024-01-06T07:41:50;97636.06;;;6.20;100.00
46722;BME280;32455;43.430;23.136;2024-01-06T07:44:36;97633.41;;;6.07;100.00
46722;BME280;32455;43.430;23.136;2024-01-06T07:47:21;97631.38;;;6.09;100.00
46722;BME280;32455;43.430;23.136;2024-01-06T07:50:07;97633.22;;;6.22;100.00
46722;BME280;32455;43.430;23.136;2024-01-06T07:52:53;97623.56;;;6.14;100.00
46722;BME280;32455;43.430;23.136;2024-01-06T07:55:40;97631.94;;;6.24;100.00
46722;BME280;32455;43.430;23.136;2024-01-06T07:58:25;97634.59;;;6.44;100.00
46722;BME280;32455;43.430;23.136;2024-01-06T08:01:10;97641.41;;;6.27;100.00
46722;BME280;32455;43.430;23.136;2024-01-06T08:03:55;97625.22;;;6.09;100.00
46722;BME280;32455;43.430;23.136;2024-01-06T08:06:41;97617.38;;;6.20;100.00
46722;BME280;32455;43.430;23.136;2024-01-06T08:09:26;97615.50;;;6.41;100.00
46722;BME280;32455;43.430;23.136;2024-01-06T08:12:12;97613.09;;;6.19;100.00
46722;BME280;32455;43.430;23.136;2024-01-06T08:14:57;97611.84;;;6.35;100.00
46722;BME280;32455;43.430;23.136;2024-01-06T08:17:42;97605.69;;;6.35;100.00
46722;BME280;32455;43.430;23.136;2024-01-06T08:20:28;97612.78;;;6.54;100.00
46722;BME280;32455;43.430;23.136;2024-01-06T08:23:13;97610.28;;;6.66;100.00
46722;BME280;32455;43.430;23.136;2024-01-06T08:25:59;97606.88;;;6.45;100.00
46722;BME280;32455;43.430;23.136;2024-01-06T08:28:44;97611.16;;;6.53;100.00
46722;BME280;32455;43.430;23.136;2024-01-06T08:31:28;97611.84;;;6.28;100.00
46722;BME280;32455;43.430;23.136;2024-01-06T08:34:13;97615.50;;;6.47;100.00
46722;BME280;32455;43.430;23.136;2024-01-06T08:36:58;97616.50;;;6.60;100.00
46722;BME280;32455;43.430;23.136;2024-01-06T08:39:43;97618.72;;;6.63;100.00
46722;BME280;32455;43.430;23.136;2024-01-06T08:42:29;97623.31;;;6.29;100.00
46722;BME280;32455;43.430;23.136;2024-01-06T08:45:14;97615.72;;;6.33;100.00
46722;BME280;32455;43.430;23.136;2024-01-06T08:48:00;97610.19;;;6.34;100.00
46722;BME280;32455;43.430;23.136;2024-01-06T08:50:45;97626.44;;;6.19;100.00
46722;BME280;32455;43.430;23.136;2024-01-06T08:53:33;97614.25;;;6.50;100.00
46722;BME280;32455;43.430;23.136;2024-01-06T08:56:19;97611.59;;;6.43;100.00
46722;BME280;32455;43.430;23.136;2024-01-06T08:59:04;97605.97;;;6.00;100.00
46722;BME280;32455;43.430;23.136;2024-01-06T09:01:52;97614.88;;;6.45;100.00
46722;BME280;32455;43.430;23.136;2024-01-06T09:04:38;97627.81;;;6.48;100.00
46722;BME280;32455;43.430;23.136;2024-01-06T09:07:24;97628.22;;;6.45;100.00
46722;BME280;32455;43.430;23.136;2024-01-06T09:10:09;97631.75;;;6.26;100.00
46722;BME280;32455;43.430;23.136;2024-01-06T09:12:54;97621.91;;;6.20;100.00
46722;BME280;32455;43.430;23.136;2024-01-06T09:15:39;97622.72;;;6.20;100.00
46722;BME280;32455;43.430;23.136;2024-01-06T09:18:26;97608.97;;;6.30;100.00
46722;BME280;32455;43.430;23.136;2024-01-06T09:21:11;97613.91;;;6.20;100.00
46722;BME280;32455;43.430;23.136;2024-01-06T09:23:57;97608.78;;;6.18;100.00
46722;BME280;32455;43.430;23.136;2024-01-06T09:26:42;97600.16;;;6.30;100.00
46722;BME280;32455;43.430;23.136;2024-01-06T09:29:29;97599.91;;;6.38;100.00
46722;BME280;32455;43.430;23.136;2024-01-06T09:32:14;97597.44;;;6.43;100.00
46722;BME280;32455;43.430;23.136;2024-01-06T09:34:59;97594.38;;;6.39;100.00
46722;BME280;32455;43.430;23.136;2024-01-06T09:37:45;97591.88;;;6.44;100.00
46722;BME280;32455;43.430;23.136;2024-01-06T09:40:31;97583.03;;;6.50;100.00
46722;BME280;32455;43.430;23.136;2024-01-06T09:43:17;97582.44;;;6.42;100.00
46722;BME280;32455;43.430;23.136;2024-01-06T09:46:21;97569.19;;;6.15;100.00
46722;BME280;32455;43.430;23.136;2024-01-06T09:49:11;97567.72;;;6.26;100.00
46722;BME280;32455;43.430;23.136;2024-01-06T09:51:59;97568.72;;;6.38;100.00
46722;BME280;32455;43.430;23.136;2024-01-06T09:54:51;97557.84;;;6.40;100.00
46722;BME280;32455;43.430;23.136;2024-01-06T09:57:37;97565.25;;;6.31;100.00
46722;BME280;32455;43.430;23.136;2024-01-06T10:00:23;97562.53;;;6.38;100.00
46722;BME280;32455;43.430;23.136;2024-01-06T10:03:08;97555.13;;;6.46;100.00
46722;BME280;32455;43.430;23.136;2024-01-06T10:05:53;97560.31;;;6.35;100.00
46722;BME280;32455;43.430;23.136;2024-01-06T10:08:38;97542.66;;;6.34;100.00
46722;BME280;32455;43.430;23.136;2024-01-06T10:11:26;97539.09;;;6.46;100.00
46722;BME280;32455;43.430;23.136;2024-01-06T10:14:12;97537.41;;;6.59;100.00
46722;BME280;32455;43.430;23.136;2024-01-06T10:16:57;97528.31;;;6.73;100.00
46722;BME280;32455;43.430;23.136;2024-01-06T10:19:47;97524.94;;;6.46;100.00
46722;BME280;32455;43.430;23.136;2024-01-06T10:22:35;97511.16;;;6.56;100.00
46722;BME280;32455;43.430;23.136;2024-01-06T10:25:23;97517.28;;;6.63;100.00
46722;BME280;32455;43.430;23.136;2024-01-06T10:28:11;97505.19;;;6.60;100.00
46722;BME280;32455;43.430;23.136;2024-01-06T10:30:58;97508.34;;;6.44;100.00
46722;BME280;32455;43.430;23.136;2024-01-06T10:33:44;97504.50;;;6.71;100.00
46722;BME280;32455;43.430;23.136;2024-01-06T10:36:30;97502.72;;;6.59;100.00
46722;BME280;32455;43.430;23.136;2024-01-06T10:39:15;97497.50;;;6.77;100.00
46722;BME280;32455;43.430;23.136;2024-01-06T10:42:01;97503.41;;;6.86;100.00
46722;BME280;32455;43.430;23.136;2024-01-06T10:44:47;97490.88;;;6.48;100.00
46722;BME280;32455;43.430;23.136;2024-01-06T10:47:34;97482.88;;;6.41;100.00
46722;BME280;32455;43.430;23.136;2024-01-06T10:50:20;97495.81;;;6.44;100.00
46722;BME280;32455;43.430;23.136;2024-01-06T10:53:07;97475.91;;;6.47;100.00
46722;BME280;32455;43.430;23.136;2024-01-06T10:55:53;97476.97;;;6.39;100.00
46722;BME280;32455;43.430;23.136;2024-01-06T10:58:46;97472.03;;;6.43;100.00
46722;BME280;32455;43.430;23.136;2024-01-06T11:01:33;97475.22;;;6.58;100.00
46722;BME280;32455;43.430;23.136;2024-01-06T11:04:20;97466.03;;;6.47;100.00
46722;BME280;32455;43.430;23.136;2024-01-06T11:07:07;97468.50;;;6.49;100.00
46722;BME280;32455;43.430;23.136;2024-01-06T11:10:08;97466.00;;;6.54;100.00
46722;BME280;32455;43.430;23.136;2024-01-06T11:13:13;97460.13;;;6.39;100.00
46722;BME280;32455;43.430;23.136;2024-01-06T11:15:58;97455.75;;;6.51;100.00
46722;BME280;32455;43.430;23.136;2024-01-06T11:18:47;97448.94;;;6.55;100.00
46722;BME280;32455;43.430;23.136;2024-01-06T11:21:35;97454.59;;;6.72;100.00
46722;BME280;32455;43.430;23.136;2024-01-06T11:24:20;97458.16;;;6.59;100.00
46722;BME280;32455;43.430;23.136;2024-01-06T11:27:06;97457.78;;;6.56;100.00
46722;BME280;32455;43.430;23.136;2024-01-06T11:29:55;97452.31;;;6.44;100.00
46722;BME280;32455;43.430;23.136;2024-01-06T11:32:41;97451.31;;;6.38;100.00
46722;BME280;32455;43.430;23.136;2024-01-06T11:35:27;97450.47;;;6.38;100.00
46722;BME280;32455;43.430;23.136;2024-01-06T11:38:13;97448.44;;;6.33;100.00
46722;BME280;32455;43.430;23.136;2024-01-06T11:40:59;97444.97;;;6.33;100.00
46722;BME280;32455;43.430;23.136;2024-01-06T11:43:45;97437.13;;;6.38;100.00
46722;BME280;32455;43.430;23.136;2024-01-06T11:46:31;97435.91;;;6.34;100.00
46722;BME280;32455;43.430;23.136;2024-01-06T11:49:20;97434.75;;;6.23;100.00
46722;BME280;32455;43.430;23.136;2024-01-06T11:52:05;97413.16;;;6.31;100.00
46722;BME280;32455;43.430;23.136;2024-01-06T11:54:54;97416.91;;;6.23;100.00
46722;BME280;32455;43.430;23.136;2024-01-06T11:57:40;97421.06;;;6.51;100.00
46722;BME280;32455;43.430;23.136;2024-01-06T12:00:26;97426.84;;;6.41;100.00
46722;BME280;32455;43.430;23.136;2024-01-06T12:03:11;97424.81;;;6.43;100.00
46722;BME280;32455;43.430;23.136;2024-01-06T12:06:01;97406.72;;;6.45;100.00
46722;BME280;32455;43.430;23.136;2024-01-06T12:08:47;97405.91;;;6.45;100.00
46722;BME280;32455;43.430;23.136;2024-01-06T12:11:33;97391.50;;;6.46;100.00
46722;BME280;32455;43.430;23.136;2024-01-06T12:14:18;97400.97;;;6.42;100.00
46722;BME280;32455;43.430;23.136;2024-01-06T12:17:04;97396.63;;;6.16;100.00
46722;BME280;32455;43.430;23.136;2024-01-06T12:19:49;97399.34;;;6.09;100.00
46722;BME280;32455;43.430;23.136;2024-01-06T12:22:35;97410.72;;;6.30;100.00
46722;BME280;32455;43.430;23.136;2024-01-06T12:25:25;97397.34;;;6.36;100.00
46722;BME280;32455;43.430;23.136;2024-01-06T12:28:10;97396.56;;;6.61;100.00
46722;BME280;32455;43.430;23.136;2024-01-06T12:30:55;97399.38;;;6.72;100.00
46722;BME280;32455;43.430;23.136;2024-01-06T12:33:44;97397.47;;;6.48;100.00
46722;BME280;32455;43.430;23.136;2024-01-06T12:36:29;97386.81;;;6.73;100.00
46722;BME280;32455;43.430;23.136;2024-01-06T12:39:16;97384.50;;;6.76;100.00
46722;BME280;32455;43.430;23.136;2024-01-06T12:42:04;97387.50;;;6.62;100.00
46722;BME280;32455;43.430;23.136;2024-01-06T12:44:50;97376.44;;;6.58;100.00
46722;BME280;32455;43.430;23.136;2024-01-06T12:47:36;97373.13;;;6.63;100.00
46722;BME280;32455;43.430;23.136;2024-01-06T12:50:21;97384.59;;;6.70;100.00
46722;BME280;32455;43.430;23.136;2024-01-06T12:53:06;97375.41;;;6.84;100.00
46722;BME280;32455;43.430;23.136;2024-01-06T12:55:51;97389.81;;;6.83;100.00
46722;BME280;32455;43.430;23.136;2024-01-06T12:58:36;97397.91;;;6.45;100.00
46722;BME280;32455;43.430;23.136;2024-01-06T13:01:21;97381.16;;;6.31;100.00
46722;BME280;32455;43.430;23.136;2024-01-06T13:04:06;97368.41;;;6.33;100.00
46722;BME280;32455;43.430;23.136;2024-01-06T13:06:51;97364.06;;;6.39;100.00
46722;BME280;32455;43.430;23.136;2024-01-06T13:09:38;97351.19;;;6.61;100.00
46722;BME280;32455;43.430;23.136;2024-01-06T13:12:23;97360.16;;;6.66;100.00
46722;BME280;32455;43.430;23.136;2024-01-06T13:15:09;97354.53;;;6.49;100.00
46722;BME280;32455;43.430;23.136;2024-01-06T13:17:55;97354.19;;;6.71;100.00
46722;BME280;32455;43.430;23.136;2024-01-06T13:20:42;97351.00;;;6.81;100.00
46722;BME280;32455;43.430;23.136;2024-01-06T13:23:28;97337.38;;;6.89;100.00
46722;BME280;32455;43.430;23.136;2024-01-06T13:26:14;97344.41;;;7.08;100.00
46722;BME280;32455;43.430;23.136;2024-01-06T13:28:59;97347.22;;;7.13;100.00
46722;BME280;32455;43.430;23.136;2024-01-06T13:31:47;97344.97;;;7.10;100.00
46722;BME280;32455;43.430;23.136;2024-01-06T13:34:32;97342.00;;;7.00;100.00
46722;BME280;32455;43.430;23.136;2024-01-06T13:37:17;97332.81;;;6.96;100.00
46722;BME280;32455;43.430;23.136;2024-01-06T13:40:03;97345.31;;;7.20;100.00
46722;BME280;32455;43.430;23.136;2024-01-06T13:42:52;97347.88;;;7.09;100.00
46722;BME280;32455;43.430;23.136;2024-01-06T13:45:37;97341.81;;;7.38;100.00
46722;BME280;32455;43.430;23.136;2024-01-06T13:48:21;97332.69;;;7.46;100.00
46722;BME280;32455;43.430;23.136;2024-01-06T13:51:07;97321.38;;;7.62;100.00
46722;BME280;32455;43.430;23.136;2024-01-06T13:53:53;97325.03;;;7.68;100.00
46722;BME280;32455;43.430;23.136;2024-01-06T13:56:39;97311.69;;;7.49;100.00
46722;BME280;32455;43.430;23.136;2024-01-06T13:59:24;97314.88;;;7.40;100.00
46722;BME280;32455;43.430;23.136;2024-01-06T14:02:10;97314.25;;;7.56;100.00
46722;BME280;32455;43.430;23.136;2024-01-06T14:04:55;97316.56;;;7.71;100.00
46722;BME280;32455;43.430;23.136;2024-01-06T14:07:41;97314.47;;;7.73;100.00
46722;BME280;32455;43.430;23.136;2024-01-06T14:10:30;97325.06;;;7.49;100.00
46722;BME280;32455;43.430;23.136;2024-01-06T14:13:16;97317.81;;;7.68;100.00
46722;BME280;32455;43.430;23.136;2024-01-06T14:16:02;97319.34;;;7.46;100.00
46722;BME280;32455;43.430;23.136;2024-01-06T14:18:47;97312.44;;;7.38;100.00
46722;BME280;32455;43.430;23.136;2024-01-06T14:21:33;97298.38;;;7.61;100.00
46722;BME280;32455;43.430;23.136;2024-01-06T14:24:18;97286.31;;;7.70;100.00
46722;BME280;32455;43.430;23.136;2024-01-06T14:27:08;97300.16;;;7.49;100.00